sensor_id;sensor_type;location;lat;lon;timestamp;P1;durP1;ratioP1;P2;durP2;ratioP2
66272;SDS011;58450;52.150;4.466;2022-09-20T00:01:19;2.92;;;0.88;;
66272;SDS011;58450;52.150;4.466;2022-09-20T00:03:50;1.50;;;0.80;;
66272;SDS011;58450;52.150;4.466;2022-09-20T00:06:21;4.32;;;1.33;;
66272;SDS011;58450;52.150;4.466;2022-09-20T00:08:52;6.10;;;1.25;;
66272;SDS011;58450;52.150;4.466;2022-09-20T00:11:23;4.35;;;1.42;;
66272;SDS011;58450;52.150;4.466;2022-09-20T00:13:53;4.95;;;1.25;;
66272;SDS011;58450;52.150;4.466;2022-09-20T00:16:25;5.03;;;1.10;;
66272;SDS011;58450;52.150;4.466;2022-09-20T00:18:56;4.82;;;1.35;;
66272;SDS011;58450;52.150;4.466;2022-09-20T00:21:29;5.75;;;1.50;;
66272;SDS011;58450;52.150;4.466;2022-09-20T00:23:59;5.00;;;1.20;;
66272;SDS011;58450;52.150;4.466;2022-09-20T00:26:28;4.70;;;1.27;;
66272;SDS011;58450;52.150;4.466;2022-09-20T00:28:56;6.18;;;1.50;;
66272;SDS011;58450;52.150;4.466;2022-09-20T00:31:24;5.28;;;0.80;;
66272;SDS011;58450;52.150;4.466;2022-09-20T00:33:52;2.63;;;0.82;;
66272;SDS011;58450;52.150;4.466;2022-09-20T00:36:38;2.85;;;0.90;;
66272;SDS011;58450;52.150;4.466;2022-09-20T00:39:05;3.70;;;0.95;;
66272;SDS011;58450;52.150;4.466;2022-09-20T00:41:37;3.08;;;0.80;;
66272;SDS011;58450;52.150;4.466;2022-09-20T00:47:13;4.75;;;1.05;;
66272;SDS011;58450;52.150;4.466;2022-09-20T00:49:50;4.15;;;0.95;;
66272;SDS011;58450;52.150;4.466;2022-09-20T00:52:23;4.85;;;1.00;;
66272;SDS011;58450;52.150;4.466;2022-09-20T00:54:53;2.58;;;0.88;;
66272;SDS011;58450;52.150;4.466;2022-09-20T00:57:23;2.88;;;0.90;;
66272;SDS011;58450;52.150;4.466;2022-09-20T00:59:51;4.45;;;1.10;;
66272;SDS011;58450;52.150;4.466;2022-09-20T01:02:21;4.15;;;0.98;;
66272;SDS011;58450;52.150;4.466;2022-09-20T01:04:56;2.90;;;0.80;;
66272;SDS011;58450;52.150;4.466;2022-09-20T01:07:25;4.78;;;1.00;;
66272;SDS011;58450;52.150;4.466;2022-09-20T01:09:54;5.15;;;1.00;;
66272;SDS011;58450;52.150;4.466;2022-09-20T01:12:25;4.15;;;1.30;;
66272;SDS011;58450;52.150;4.466;2022-09-20T01:14:59;3.22;;;1.02;;
66272;SDS011;58450;52.150;4.466;2022-09-20T01:17:31;3.45;;;1.00;;
66272;SDS011;58450;52.150;4.466;2022-09-20T01:20:07;3.08;;;0.93;;
66272;SDS011;58450;52.150;4.466;2022-09-20T01:22:44;3.55;;;1.00;;
66272;SDS011;58450;52.150;4.466;2022-09-20T01:25:30;3.35;;;0.93;;
66272;SDS011;58450;52.150;4.466;2022-09-20T01:28:36;3.80;;;1.05;;
66272;SDS011;58450;52.150;4.466;2022-09-20T01:31:07;6.45;;;0.95;;
66272;SDS011;58450;52.150;4.466;2022-09-20T01:33:49;4.70;;;0.80;;
66272;SDS011;58450;52.150;4.466;2022-09-20T01:36:24;2.92;;;0.90;;
66272;SDS011;58450;52.150;4.466;2022-09-20T01:39:03;4.82;;;1.15;;
66272;SDS011;58450;52.150;4.466;2022-09-20T01:41:42;3.63;;;0.90;;
66272;SDS011;58450;52.150;4.466;2022-09-20T01:44:20;3.72;;;1.20;;
66272;SDS011;58450;52.150;4.466;2022-09-20T01:46:59;2.83;;;0.98;;
66272;SDS011;58450;52.150;4.466;2022-09-20T01:49:39;4.15;;;1.00;;
66272;SDS011;58450;52.150;4.466;2022-09-20T01:55:56;3.72;;;1.40;;
66272;SDS011;58450;52.150;4.466;2022-09-20T01:59:19;3.33;;;0.90;;
66272;SDS011;58450;52.150;4.466;2022-09-20T02:02:40;2.78;;;1.15;;
66272;SDS011;58450;52.150;4.466;2022-09-20T02:05:57;3.40;;;0.93;;
66272;SDS011;58450;52.150;4.466;2022-09-20T02:09:10;2.03;;;1.00;;
66272;SDS011;58450;52.150;4.466;2022-09-20T02:12:07;1.90;;;0.80;;
66272;SDS011;58450;52.150;4.466;2022-09-20T02:14:59;3.80;;;1.00;;
66272;SDS011;58450;52.150;4.466;2022-09-20T02:17:41;3.33;;;1.05;;
66272;SDS011;58450;52.150;4.466;2022-09-20T02:20:31;2.90;;;0.90;;
66272;SDS011;58450;52.150;4.466;2022-09-20T02:23:12;1.90;;;0.90;;
66272;SDS011;58450;52.150;4.466;2022-09-20T02:26:01;3.15;;;0.85;;
66272;SDS011;58450;52.150;4.466;2022-09-20T02:29:00;1.90;;;0.80;;
66272;SDS011;58450;52.150;4.466;2022-09-20T02:38:00;2.05;;;0.95;;
66272;SDS011;58450;52.150;4.466;2022-09-20T02:40:49;3.17;;;1.13;;
66272;SDS011;58450;52.150;4.466;2022-09-20T02:43:45;4.15;;;1.20;;
66272;SDS011;58450;52.150;4.466;2022-09-20T02:46:25;3.35;;;0.98;;
66272;SDS011;58450;52.150;4.466;2022-09-20T02:49:03;3.92;;;1.08;;
66272;SDS011;58450;52.150;4.466;2022-09-20T02:51:43;4.35;;;1.40;;
66272;SDS011;58450;52.150;4.466;2022-09-20T02:54:21;2.97;;;1.30;;
66272;SDS011;58450;52.150;4.466;2022-09-20T02:57:08;3.53;;;1.25;;
66272;SDS011;58450;52.150;4.466;2022-09-20T02:59:48;3.15;;;0.98;;
66272;SDS011;58450;52.150;4.466;2022-09-20T03:02:27;6.25;;;1.70;;
66272;SDS011;58450;52.150;4.466;2022-09-20T03:05:09;5.55;;;1.50;;
66272;SDS011;58450;52.150;4.466;2022-09-20T03:07:57;2.08;;;1.20;;
66272;SDS011;58450;52.150;4.466;2022-09-20T03:11:00;4.03;;;1.15;;
66272;SDS011;58450;52.150;4.466;2022-09-20T03:13:45;4.25;;;1.20;;
66272;SDS011;58450;52.150;4.466;2022-09-20T03:16:39;3.38;;;1.10;;
66272;SDS011;58450;52.150;4.466;2022-09-20T03:19:28;2.50;;;1.00;;
66272;SDS011;58450;52.150;4.466;2022-09-20T03:22:16;3.00;;;1.00;;
66272;SDS011;58450;52.150;4.466;2022-09-20T03:25:04;3.10;;;1.10;;
66272;SDS011;58450;52.150;4.466;2022-09-20T03:27:54;5.43;;;1.40;;
66272;SDS011;58450;52.150;4.466;2022-09-20T03:33:22;5.88;;;1.60;;
66272;SDS011;58450;52.150;4.466;2022-09-20T03:36:08;7.88;;;1.85;;
66272;SDS011;58450;52.150;4.466;2022-09-20T03:39:00;5.47;;;1.55;;
66272;SDS011;58450;52.150;4.466;2022-09-20T03:44:52;3.25;;;1.52;;
66272;SDS011;58450;52.150;4.466;2022-09-20T03:50:59;5.13;;;1.40;;
66272;SDS011;58450;52.150;4.466;2022-09-20T03:53:50;4.35;;;1.10;;
66272;SDS011;58450;52.150;4.466;2022-09-20T03:57:05;3.63;;;1.02;;
66272;SDS011;58450;52.150;4.466;2022-09-20T04:00:07;4.28;;;1.08;;
66272;SDS011;58450;52.150;4.466;2022-09-20T04:02:57;3.80;;;1.10;;
66272;SDS011;58450;52.150;4.466;2022-09-20T04:05:44;3.72;;;1.10;;
66272;SDS011;58450;52.150;4.466;2022-09-20T04:08:34;1.48;;;0.90;;
66272;SDS011;58450;52.150;4.466;2022-09-20T04:11:24;3.30;;;1.10;;
66272;SDS011;58450;52.150;4.466;2022-09-20T04:14:05;4.07;;;1.30;;
66272;SDS011;58450;52.150;4.466;2022-09-20T04:16:45;4.20;;;1.42;;
66272;SDS011;58450;52.150;4.466;2022-09-20T04:19:27;4.75;;;1.30;;
66272;SDS011;58450;52.150;4.466;2022-09-20T04:22:06;2.72;;;1.00;;
66272;SDS011;58450;52.150;4.466;2022-09-20T04:24:36;2.40;;;0.95;;
66272;SDS011;58450;52.150;4.466;2022-09-20T04:27:18;3.75;;;1.00;;
66272;SDS011;58450;52.150;4.466;2022-09-20T04:29:56;2.83;;;0.90;;
66272;SDS011;58450;52.150;4.466;2022-09-20T04:32:29;2.63;;;0.93;;
66272;SDS011;58450;52.150;4.466;2022-09-20T04:35:10;3.70;;;1.10;;
66272;SDS011;58450;52.150;4.466;2022-09-20T04:38:15;2.28;;;1.10;;
66272;SDS011;58450;52.150;4.466;2022-09-20T04:40:57;1.50;;;0.80;;
66272;SDS011;58450;52.150;4.466;2022-09-20T04:43:57;4.85;;;1.05;;
66272;SDS011;58450;52.150;4.466;2022-09-20T04:50:22;3.50;;;1.08;;
66272;SDS011;58450;52.150;4.466;2022-09-20T04:53:30;4.13;;;1.00;;
66272;SDS011;58450;52.150;4.466;2022-09-20T04:56:49;3.25;;;1.10;;
66272;SDS011;58450;52.150;4.466;2022-09-20T04:59:52;2.17;;;0.90;;
66272;SDS011;58450;52.150;4.466;2022-09-20T05:02:38;3.67;;;0.80;;
66272;SDS011;58450;52.150;4.466;2022-09-20T05:05:39;2.40;;;0.80;;
66272;SDS011;58450;52.150;4.466;2022-09-20T05:11:58;5.28;;;1.25;;
66272;SDS011;58450;52.150;4.466;2022-09-20T05:15:06;3.05;;;0.95;;
66272;SDS011;58450;52.150;4.466;2022-09-20T05:18:01;4.90;;;1.00;;
66272;SDS011;58450;52.150;4.466;2022-09-20T05:21:14;2.90;;;1.10;;
66272;SDS011;58450;52.150;4.466;2022-09-20T05:24:27;2.40;;;0.77;;
66272;SDS011;58450;52.150;4.466;2022-09-20T05:27:21;2.30;;;0.70;;
66272;SDS011;58450;52.150;4.466;2022-09-20T05:30:10;2.67;;;0.75;;
66272;SDS011;58450;52.150;4.466;2022-09-20T05:32:50;2.33;;;0.75;;
66272;SDS011;58450;52.150;4.466;2022-09-20T05:35:37;1.55;;;0.80;;
66272;SDS011;58450;52.150;4.466;2022-09-20T05:38:21;2.92;;;0.90;;
66272;SDS011;58450;52.150;4.466;2022-09-20T05:41:05;1.95;;;0.95;;
66272;SDS011;58450;52.150;4.466;2022-09-20T05:43:44;2.03;;;0.90;;
66272;SDS011;58450;52.150;4.466;2022-09-20T05:46:33;3.17;;;0.90;;
66272;SDS011;58450;52.150;4.466;2022-09-20T05:51:57;2.38;;;0.90;;
66272;SDS011;58450;52.150;4.466;2022-09-20T05:54:56;1.40;;;0.90;;
66272;SDS011;58450;52.150;4.466;2022-09-20T05:57:46;3.33;;;0.93;;
66272;SDS011;58450;52.150;4.466;2022-09-20T06:00:34;2.00;;;0.90;;
66272;SDS011;58450;52.150;4.466;2022-09-20T06:03:14;3.45;;;1.00;;
66272;SDS011;58450;52.150;4.466;2022-09-20T06:06:01;1.88;;;1.10;;
66272;SDS011;58450;52.150;4.466;2022-09-20T06:08:44;2.55;;;0.80;;
66272;SDS011;58450;52.150;4.466;2022-09-20T06:14:17;3.78;;;1.17;;
66272;SDS011;58450;52.150;4.466;2022-09-20T06:17:03;1.52;;;0.98;;
66272;SDS011;58450;52.150;4.466;2022-09-20T06:19:48;2.45;;;1.10;;
66272;SDS011;58450;52.150;4.466;2022-09-20T06:22:31;1.52;;;0.90;;
66272;SDS011;58450;52.150;4.466;2022-09-20T06:25:09;2.83;;;1.13;;
66272;SDS011;58450;52.150;4.466;2022-09-20T06:27:50;4.97;;;1.38;;
66272;SDS011;58450;52.150;4.466;2022-09-20T06:30:22;4.15;;;1.40;;
66272;SDS011;58450;52.150;4.466;2022-09-20T06:32:55;4.18;;;1.40;;
66272;SDS011;58450;52.150;4.466;2022-09-20T06:35:28;4.80;;;1.50;;
66272;SDS011;58450;52.150;4.466;2022-09-20T06:38:06;4.43;;;1.70;;
66272;SDS011;58450;52.150;4.466;2022-09-20T06:41:13;5.85;;;1.88;;
66272;SDS011;58450;52.150;4.466;2022-09-20T06:43:53;3.80;;;1.52;;
66272;SDS011;58450;52.150;4.466;2022-09-20T06:46:23;5.28;;;1.35;;
66272;SDS011;58450;52.150;4.466;2022-09-20T06:48:52;7.15;;;1.80;;
66272;SDS011;58450;52.150;4.466;2022-09-20T06:51:23;6.63;;;2.15;;
66272;SDS011;58450;52.150;4.466;2022-09-20T06:53:54;4.72;;;1.40;;
66272;SDS011;58450;52.150;4.466;2022-09-20T06:56:24;5.38;;;1.30;;
66272;SDS011;58450;52.150;4.466;2022-09-20T06:58:56;4.95;;;1.45;;
66272;SDS011;58450;52.150;4.466;2022-09-20T07:01:24;3.92;;;1.52;;
66272;SDS011;58450;52.150;4.466;2022-09-20T07:03:51;3.97;;;1.40;;
66272;SDS011;58450;52.150;4.466;2022-09-20T07:06:19;3.90;;;1.33;;
66272;SDS011;58450;52.150;4.466;2022-09-20T07:08:47;5.22;;;1.40;;
66272;SDS011;58450;52.150;4.466;2022-09-20T07:11:15;3.03;;;1.13;;
66272;SDS011;58450;52.150;4.466;2022-09-20T07:13:44;5.72;;;1.10;;
66272;SDS011;58450;52.150;4.466;2022-09-20T07:16:16;3.10;;;0.90;;
66272;SDS011;58450;52.150;4.466;2022-09-20T07:18:44;2.38;;;0.90;;
66272;SDS011;58450;52.150;4.466;2022-09-20T07:21:14;2.88;;;1.08;;
66272;SDS011;58450;52.150;4.466;2022-09-20T07:23:43;2.63;;;1.10;;
66272;SDS011;58450;52.150;4.466;2022-09-20T07:26:17;3.40;;;1.08;;
66272;SDS011;58450;52.150;4.466;2022-09-20T07:28:46;4.40;;;0.90;;
66272;SDS011;58450;52.150;4.466;2022-09-20T07:31:15;3.92;;;0.98;;
66272;SDS011;58450;52.150;4.466;2022-09-20T07:33:45;2.53;;;0.60;;
66272;SDS011;58450;52.150;4.466;2022-09-20T07:36:12;2.83;;;0.90;;
66272;SDS011;58450;52.150;4.466;2022-09-20T07:38:41;2.35;;;0.80;;
66272;SDS011;58450;52.150;4.466;2022-09-20T07:41:09;2.22;;;0.95;;
66272;SDS011;58450;52.150;4.466;2022-09-20T07:43:38;3.50;;;0.60;;
66272;SDS011;58450;52.150;4.466;2022-09-20T07:46:05;0.77;;;0.50;;
66272;SDS011;58450;52.150;4.466;2022-09-20T07:48:34;1.80;;;0.70;;
66272;SDS011;58450;52.150;4.466;2022-09-20T07:51:03;2.70;;;0.60;;
66272;SDS011;58450;52.150;4.466;2022-09-20T07:53:33;3.42;;;0.60;;
66272;SDS011;58450;52.150;4.466;2022-09-20T07:56:02;2.03;;;0.60;;
66272;SDS011;58450;52.150;4.466;2022-09-20T07:58:32;2.70;;;0.70;;
66272;SDS011;58450;52.150;4.466;2022-09-20T08:01:04;2.97;;;0.60;;
66272;SDS011;58450;52.150;4.466;2022-09-20T08:03:34;3.65;;;0.70;;
66272;SDS011;58450;52.150;4.466;2022-09-20T08:06:03;2.63;;;0.80;;
66272;SDS011;58450;52.150;4.466;2022-09-20T08:08:33;3.72;;;0.63;;
66272;SDS011;58450;52.150;4.466;2022-09-20T08:11:03;2.40;;;0.60;;
66272;SDS011;58450;52.150;4.466;2022-09-20T08:13:34;1.95;;;0.70;;
66272;SDS011;58450;52.150;4.466;2022-09-20T08:16:04;1.38;;;0.60;;
66272;SDS011;58450;52.150;4.466;2022-09-20T08:21:04;2.40;;;0.70;;
66272;SDS011;58450;52.150;4.466;2022-09-20T08:23:33;2.30;;;0.70;;
66272;SDS011;58450;52.150;4.466;2022-09-20T08:26:01;2.50;;;0.60;;
66272;SDS011;58450;52.150;4.466;2022-09-20T08:28:30;3.90;;;0.70;;
66272;SDS011;58450;52.150;4.466;2022-09-20T08:31:01;2.88;;;0.73;;
66272;SDS011;58450;52.150;4.466;2022-09-20T08:33:33;1.35;;;0.50;;
66272;SDS011;58450;52.150;4.466;2022-09-20T08:36:02;2.20;;;0.55;;
66272;SDS011;58450;52.150;4.466;2022-09-20T08:38:30;3.25;;;0.98;;
66272;SDS011;58450;52.150;4.466;2022-09-20T08:41:00;2.97;;;0.70;;
66272;SDS011;58450;52.150;4.466;2022-09-20T08:43:34;2.55;;;0.77;;
66272;SDS011;58450;52.150;4.466;2022-09-20T08:46:08;3.05;;;0.90;;
66272;SDS011;58450;52.150;4.466;2022-09-20T08:48:43;2.90;;;0.70;;
66272;SDS011;58450;52.150;4.466;2022-09-20T08:51:12;3.55;;;0.90;;
66272;SDS011;58450;52.150;4.466;2022-09-20T08:53:45;2.30;;;0.70;;
66272;SDS011;58450;52.150;4.466;2022-09-20T08:56:16;3.45;;;0.90;;
66272;SDS011;58450;52.150;4.466;2022-09-20T08:58:44;2.63;;;0.70;;
66272;SDS011;58450;52.150;4.466;2022-09-20T09:01:16;2.25;;;0.70;;
66272;SDS011;58450;52.150;4.466;2022-09-20T09:03:48;2.80;;;0.85;;
66272;SDS011;58450;52.150;4.466;2022-09-20T09:06:18;2.00;;;0.65;;
66272;SDS011;58450;52.150;4.466;2022-09-20T09:08:49;5.15;;;1.05;;
66272;SDS011;58450;52.150;4.466;2022-09-20T09:11:18;2.70;;;0.68;;
66272;SDS011;58450;52.150;4.466;2022-09-20T09:13:49;1.67;;;0.60;;
66272;SDS011;58450;52.150;4.466;2022-09-20T09:16:25;2.00;;;0.60;;
66272;SDS011;58450;52.150;4.466;2022-09-20T09:18:56;4.28;;;0.85;;
66272;SDS011;58450;52.150;4.466;2022-09-20T09:21:49;3.28;;;0.80;;
66272;SDS011;58450;52.150;4.466;2022-09-20T09:24:17;4.32;;;0.80;;
66272;SDS011;58450;52.150;4.466;2022-09-20T09:26:46;2.53;;;0.73;;
66272;SDS011;58450;52.150;4.466;2022-09-20T09:29:15;3.58;;;0.73;;
66272;SDS011;58450;52.150;4.466;2022-09-20T09:31:48;3.58;;;0.73;;
66272;SDS011;58450;52.150;4.466;2022-09-20T09:34:24;3.42;;;0.95;;
66272;SDS011;58450;52.150;4.466;2022-09-20T09:36:54;1.67;;;0.63;;
66272;SDS011;58450;52.150;4.466;2022-09-20T09:39:24;2.42;;;0.70;;
66272;SDS011;58450;52.150;4.466;2022-09-20T09:41:54;1.25;;;0.45;;
66272;SDS011;58450;52.150;4.466;2022-09-20T09:44:26;1.20;;;0.50;;
66272;SDS011;58450;52.150;4.466;2022-09-20T09:46:58;2.17;;;0.60;;
66272;SDS011;58450;52.150;4.466;2022-09-20T09:49:27;1.73;;;0.60;;
66272;SDS011;58450;52.150;4.466;2022-09-20T09:52:03;2.05;;;0.60;;
66272;SDS011;58450;52.150;4.466;2022-09-20T09:54:39;2.95;;;0.70;;
66272;SDS011;58450;52.150;4.466;2022-09-20T09:57:27;2.55;;;0.88;;
66272;SDS011;58450;52.150;4.466;2022-09-20T10:00:19;1.58;;;0.60;;
66272;SDS011;58450;52.150;4.466;2022-09-20T10:02:52;2.20;;;0.70;;
66272;SDS011;58450;52.150;4.466;2022-09-20T10:05:44;2.60;;;0.70;;
66272;SDS011;58450;52.150;4.466;2022-09-20T10:08:31;2.33;;;0.82;;
66272;SDS011;58450;52.150;4.466;2022-09-20T10:11:17;2.67;;;0.80;;
66272;SDS011;58450;52.150;4.466;2022-09-20T10:14:01;3.20;;;0.85;;
66272;SDS011;58450;52.150;4.466;2022-09-20T10:16:51;2.22;;;0.93;;
66272;SDS011;58450;52.150;4.466;2022-09-20T10:19:44;2.67;;;0.60;;
66272;SDS011;58450;52.150;4.466;2022-09-20T10:22:34;2.78;;;0.80;;
66272;SDS011;58450;52.150;4.466;2022-09-20T10:25:19;2.63;;;0.65;;
66272;SDS011;58450;52.150;4.466;2022-09-20T10:28:12;3.40;;;0.80;;
66272;SDS011;58450;52.150;4.466;2022-09-20T10:31:16;4.68;;;0.80;;
66272;SDS011;58450;52.150;4.466;2022-09-20T10:34:08;2.63;;;0.70;;
66272;SDS011;58450;52.150;4.466;2022-09-20T10:36:58;2.97;;;0.93;;
66272;SDS011;58450;52.150;4.466;2022-09-20T10:39:28;3.92;;;0.70;;
66272;SDS011;58450;52.150;4.466;2022-09-20T10:42:02;2.40;;;0.82;;
66272;SDS011;58450;52.150;4.466;2022-09-20T10:45:14;2.78;;;0.50;;
66272;SDS011;58450;52.150;4.466;2022-09-20T10:47:47;2.63;;;0.60;;
66272;SDS011;58450;52.150;4.466;2022-09-20T10:50:31;2.20;;;0.70;;
66272;SDS011;58450;52.150;4.466;2022-09-20T10:53:15;2.45;;;0.63;;
66272;SDS011;58450;52.150;4.466;2022-09-20T10:55:58;2.72;;;0.68;;
66272;SDS011;58450;52.150;4.466;2022-09-20T10:59:03;2.70;;;0.70;;
66272;SDS011;58450;52.150;4.466;2022-09-20T11:01:52;3.08;;;0.60;;
66272;SDS011;58450;52.150;4.466;2022-09-20T11:05:01;2.85;;;0.63;;
66272;SDS011;58450;52.150;4.466;2022-09-20T11:07:55;2.20;;;0.70;;
66272;SDS011;58450;52.150;4.466;2022-09-20T11:10:35;1.50;;;0.55;;
66272;SDS011;58450;52.150;4.466;2022-09-20T11:13:14;1.20;;;0.65;;
66272;SDS011;58450;52.150;4.466;2022-09-20T11:15:54;2.20;;;0.70;;
66272;SDS011;58450;52.150;4.466;2022-09-20T11:18:29;1.67;;;0.52;;
66272;SDS011;58450;52.150;4.466;2022-09-20T11:21:07;3.28;;;0.75;;
66272;SDS011;58450;52.150;4.466;2022-09-20T11:23:45;2.67;;;0.82;;
66272;SDS011;58450;52.150;4.466;2022-09-20T11:26:23;2.28;;;0.65;;
66272;SDS011;58450;52.150;4.466;2022-09-20T11:29:02;2.30;;;0.70;;
66272;SDS011;58450;52.150;4.466;2022-09-20T11:31:46;3.25;;;0.77;;
66272;SDS011;58450;52.150;4.466;2022-09-20T11:34:20;4.68;;;0.70;;
66272;SDS011;58450;52.150;4.466;2022-09-20T11:36:56;2.80;;;0.73;;
66272;SDS011;58450;52.150;4.466;2022-09-20T11:39:28;1.90;;;0.60;;
66272;SDS011;58450;52.150;4.466;2022-09-20T11:42:06;1.88;;;0.65;;
66272;SDS011;58450;52.150;4.466;2022-09-20T11:44:42;3.50;;;0.70;;
66272;SDS011;58450;52.150;4.466;2022-09-20T11:47:11;1.73;;;0.60;;
66272;SDS011;58450;52.150;4.466;2022-09-20T11:49:51;2.00;;;0.60;;
66272;SDS011;58450;52.150;4.466;2022-09-20T11:52:53;3.72;;;0.73;;
66272;SDS011;58450;52.150;4.466;2022-09-20T11:55:39;2.88;;;0.80;;
66272;SDS011;58450;52.150;4.466;2022-09-20T11:58:19;1.92;;;0.68;;
66272;SDS011;58450;52.150;4.466;2022-09-20T12:00:47;1.85;;;0.70;;
66272;SDS011;58450;52.150;4.466;2022-09-20T12:03:21;2.87;;;0.73;;
66272;SDS011;58450;52.150;4.466;2022-09-20T12:05:59;1.67;;;0.63;;
66272;SDS011;58450;52.150;4.466;2022-09-20T12:08:30;2.15;;;0.65;;
66272;SDS011;58450;52.150;4.466;2022-09-20T12:11:03;1.73;;;0.45;;
66272;SDS011;58450;52.150;4.466;2022-09-20T12:13:37;0.90;;;0.50;;
66272;SDS011;58450;52.150;4.466;2022-09-20T12:16:11;2.38;;;0.60;;
66272;SDS011;58450;52.150;4.466;2022-09-20T12:18:47;1.20;;;0.50;;
66272;SDS011;58450;52.150;4.466;2022-09-20T12:21:30;2.22;;;0.60;;
66272;SDS011;58450;52.150;4.466;2022-09-20T12:24:37;1.98;;;0.63;;
66272;SDS011;58450;52.150;4.466;2022-09-20T12:27:19;2.08;;;0.60;;
66272;SDS011;58450;52.150;4.466;2022-09-20T12:30:17;2.97;;;0.88;;
66272;SDS011;58450;52.150;4.466;2022-09-20T12:38:59;2.15;;;0.55;;
66272;SDS011;58450;52.150;4.466;2022-09-20T12:41:45;1.63;;;0.45;;
66272;SDS011;58450;52.150;4.466;2022-09-20T12:44:21;2.70;;;0.60;;
66272;SDS011;58450;52.150;4.466;2022-09-20T12:46:56;2.03;;;0.50;;
66272;SDS011;58450;52.150;4.466;2022-09-20T12:49:32;3.33;;;0.60;;
66272;SDS011;58450;52.150;4.466;2022-09-20T12:52:38;1.85;;;0.65;;
66272;SDS011;58450;52.150;4.466;2022-09-20T12:58:27;1.38;;;0.43;;
66272;SDS011;58450;52.150;4.466;2022-09-20T13:10:29;2.15;;;0.50;;
66272;SDS011;58450;52.150;4.466;2022-09-20T13:13:03;2.15;;;0.50;;
66272;SDS011;58450;52.150;4.466;2022-09-20T13:15:48;1.65;;;0.38;;
66272;SDS011;58450;52.150;4.466;2022-09-20T13:18:19;1.60;;;0.40;;
66272;SDS011;58450;52.150;4.466;2022-09-20T13:20:51;2.63;;;0.55;;
66272;SDS011;58450;52.150;4.466;2022-09-20T13:23:22;2.47;;;0.40;;
66272;SDS011;58450;52.150;4.466;2022-09-20T13:25:55;0.93;;;0.40;;
66272;SDS011;58450;52.150;4.466;2022-09-20T13:28:28;0.82;;;0.40;;
66272;SDS011;58450;52.150;4.466;2022-09-20T13:34:14;2.28;;;0.43;;
66272;SDS011;58450;52.150;4.466;2022-09-20T13:36:47;1.75;;;0.40;;
66272;SDS011;58450;52.150;4.466;2022-09-20T13:39:23;1.88;;;0.50;;
66272;SDS011;58450;52.150;4.466;2022-09-20T13:42:00;1.92;;;0.40;;
66272;SDS011;58450;52.150;4.466;2022-09-20T13:44:33;1.17;;;0.40;;
66272;SDS011;58450;52.150;4.466;2022-09-20T13:47:05;1.50;;;0.50;;
66272;SDS011;58450;52.150;4.466;2022-09-20T13:49:52;0.98;;;0.40;;
66272;SDS011;58450;52.150;4.466;2022-09-20T13:52:27;1.50;;;0.40;;
66272;SDS011;58450;52.150;4.466;2022-09-20T13:54:59;2.90;;;0.40;;
66272;SDS011;58450;52.150;4.466;2022-09-20T13:57:46;1.23;;;0.50;;
66272;SDS011;58450;52.150;4.466;2022-09-20T14:00:14;2.63;;;0.43;;
66272;SDS011;58450;52.150;4.466;2022-09-20T14:02:43;0.63;;;0.35;;
66272;SDS011;58450;52.150;4.466;2022-09-20T14:05:14;0.65;;;0.40;;
66272;SDS011;58450;52.150;4.466;2022-09-20T14:07:45;2.13;;;0.50;;
66272;SDS011;58450;52.150;4.466;2022-09-20T14:10:32;1.15;;;0.50;;
66272;SDS011;58450;52.150;4.466;2022-09-20T14:13:03;0.73;;;0.30;;
66272;SDS011;58450;52.150;4.466;2022-09-20T14:15:35;2.15;;;0.57;;
66272;SDS011;58450;52.150;4.466;2022-09-20T14:18:08;1.92;;;0.47;;
66272;SDS011;58450;52.150;4.466;2022-09-20T14:20:42;1.50;;;0.43;;
66272;SDS011;58450;52.150;4.466;2022-09-20T14:23:18;2.13;;;0.60;;
66272;SDS011;58450;52.150;4.466;2022-09-20T14:28:48;1.58;;;0.32;;
66272;SDS011;58450;52.150;4.466;2022-09-20T14:31:17;2.03;;;0.40;;
66272;SDS011;58450;52.150;4.466;2022-09-20T14:33:50;1.95;;;0.40;;
66272;SDS011;58450;52.150;4.466;2022-09-20T14:36:22;4.20;;;0.85;;
66272;SDS011;58450;52.150;4.466;2022-09-20T14:38:53;3.35;;;0.60;;
66272;SDS011;58450;52.150;4.466;2022-09-20T14:41:27;1.23;;;0.50;;
66272;SDS011;58450;52.150;4.466;2022-09-20T14:44:00;2.92;;;0.45;;
66272;SDS011;58450;52.150;4.466;2022-09-20T14:46:31;3.45;;;0.68;;
66272;SDS011;58450;52.150;4.466;2022-09-20T14:49:20;2.05;;;0.50;;
66272;SDS011;58450;52.150;4.466;2022-09-20T14:57:47;3.00;;;0.60;;
66272;SDS011;58450;52.150;4.466;2022-09-20T15:00:15;1.95;;;0.40;;
66272;SDS011;58450;52.150;4.466;2022-09-20T15:02:44;1.50;;;0.50;;
66272;SDS011;58450;52.150;4.466;2022-09-20T15:05:16;2.53;;;0.47;;
66272;SDS011;58450;52.150;4.466;2022-09-20T15:07:51;1.92;;;0.50;;
66272;SDS011;58450;52.150;4.466;2022-09-20T15:10:21;2.70;;;0.50;;
66272;SDS011;58450;52.150;4.466;2022-09-20T15:12:51;0.73;;;0.20;;
66272;SDS011;58450;52.150;4.466;2022-09-20T15:15:19;1.95;;;0.52;;
66272;SDS011;58450;52.150;4.466;2022-09-20T15:17:46;1.80;;;0.40;;
66272;SDS011;58450;52.150;4.466;2022-09-20T15:20:15;3.53;;;0.65;;
66272;SDS011;58450;52.150;4.466;2022-09-20T15:22:46;2.70;;;0.57;;
66272;SDS011;58450;52.150;4.466;2022-09-20T15:25:15;1.85;;;0.47;;
66272;SDS011;58450;52.150;4.466;2022-09-20T15:27:46;2.25;;;0.50;;
66272;SDS011;58450;52.150;4.466;2022-09-20T15:30:17;1.73;;;0.30;;
66272;SDS011;58450;52.150;4.466;2022-09-20T15:32:45;2.80;;;0.60;;
66272;SDS011;58450;52.150;4.466;2022-09-20T15:35:13;1.20;;;0.50;;
66272;SDS011;58450;52.150;4.466;2022-09-20T15:37:41;3.30;;;0.70;;
66272;SDS011;58450;52.150;4.466;2022-09-20T15:40:09;2.90;;;0.60;;
66272;SDS011;58450;52.150;4.466;2022-09-20T15:42:37;1.73;;;0.40;;
66272;SDS011;58450;52.150;4.466;2022-09-20T15:45:07;2.22;;;0.55;;
66272;SDS011;58450;52.150;4.466;2022-09-20T15:47:38;1.23;;;0.32;;
66272;SDS011;58450;52.150;4.466;2022-09-20T15:50:06;1.08;;;0.40;;
66272;SDS011;58450;52.150;4.466;2022-09-20T15:52:36;1.92;;;0.35;;
66272;SDS011;58450;52.150;4.466;2022-09-20T15:55:06;1.75;;;0.32;;
66272;SDS011;58450;52.150;4.466;2022-09-20T15:57:35;1.05;;;0.40;;
66272;SDS011;58450;52.150;4.466;2022-09-20T16:00:03;1.27;;;0.40;;
66272;SDS011;58450;52.150;4.466;2022-09-20T16:02:32;3.20;;;0.45;;
66272;SDS011;58450;52.150;4.466;2022-09-20T16:05:02;0.70;;;0.40;;
66272;SDS011;58450;52.150;4.466;2022-09-20T16:07:30;2.28;;;0.70;;
66272;SDS011;58450;52.150;4.466;2022-09-20T16:09:58;2.97;;;0.73;;
66272;SDS011;58450;52.150;4.466;2022-09-20T16:12:25;2.90;;;0.60;;
66272;SDS011;58450;52.150;4.466;2022-09-20T16:14:52;2.22;;;0.50;;
66272;SDS011;58450;52.150;4.466;2022-09-20T16:17:20;1.52;;;0.50;;
66272;SDS011;58450;52.150;4.466;2022-09-20T16:20:10;1.60;;;0.50;;
66272;SDS011;58450;52.150;4.466;2022-09-20T16:22:36;1.77;;;0.50;;
66272;SDS011;58450;52.150;4.466;2022-09-20T16:25:04;0.52;;;0.30;;
66272;SDS011;58450;52.150;4.466;2022-09-20T16:27:33;1.30;;;0.47;;
66272;SDS011;58450;52.150;4.466;2022-09-20T16:30:01;1.40;;;0.50;;
66272;SDS011;58450;52.150;4.466;2022-09-20T16:32:28;3.42;;;0.55;;
66272;SDS011;58450;52.150;4.466;2022-09-20T16:34:56;1.75;;;0.40;;
66272;SDS011;58450;52.150;4.466;2022-09-20T16:37:27;0.35;;;0.30;;
66272;SDS011;58450;52.150;4.466;2022-09-20T16:39:57;1.88;;;0.50;;
66272;SDS011;58450;52.150;4.466;2022-09-20T16:42:25;0.90;;;0.45;;
66272;SDS011;58450;52.150;4.466;2022-09-20T16:44:53;2.97;;;0.60;;
66272;SDS011;58450;52.150;4.466;2022-09-20T16:47:21;2.22;;;0.57;;
66272;SDS011;58450;52.150;4.466;2022-09-20T16:49:49;1.75;;;0.40;;
66272;SDS011;58450;52.150;4.466;2022-09-20T16:52:18;2.13;;;0.60;;
66272;SDS011;58450;52.150;4.466;2022-09-20T16:54:48;2.53;;;0.50;;
66272;SDS011;58450;52.150;4.466;2022-09-20T16:57:15;0.80;;;0.38;;
66272;SDS011;58450;52.150;4.466;2022-09-20T16:59:43;1.60;;;0.77;;
66272;SDS011;58450;52.150;4.466;2022-09-20T17:02:11;2.75;;;0.50;;